KHON/HON METAR and TAF weather

Enter ICAO airport designator
Station Type Date Time Source
KHON METAR 2021/04/17 02:55 UTC NOAA

KHON 170255Z AUTO 33005KT 10SM BKN037 OVC090 04/02 A3016 RMK AO2 SLP222 60000 T00440022 53006


Station Type Date Time Source
KHON Decoded METAR 2021/04/17 02:55 UTC NOAA

HURON REGIONAL AIRPORT, SD, United States (KHON) 44-23N 098-14W 390M
Apr 16, 2021 - 10:55 PM EDT / 2021.04.17 0255 UTC
Wind: from the NNW (330 degrees) at 6 MPH (5 KT):0
Visibility: 10 mile(s):0
Sky conditions: overcast
Temperature: 39.9 F (4.4 C)
Dew Point: 36.0 F (2.2 C)
Relative Humidity: 85%
Pressure (altimeter): 30.16 in. Hg (1021 hPa)
Pressure tendency: 0.02 inches (0.6 hPa) higher than three hours ago
ob: KHON 170255Z AUTO 33005KT 10SM BKN037 OVC090 04/02 A3016 RMK AO2 SLP222 60000 T00440022 53006
cycle: 3

Station Type Date Time Source
KHON TAF 2021/04/16 23:51 UTC NOAA

TAF
AMD KHON 162247Z 1623/1718 36011KT P6SM OVC040
FM170200 35008KT P6SM BKN050 OVC100
FM170600 34007KT P6SM OVC018

Example: see airport list